Time;durP1;ratioP1;P1;durP2;ratioP2;P2;SDS_P1;SDS_P2;PMS_P1;PMS_P2;Temp;Humidity;BMP_temperature;BMP_pressure;BME280_temperature;BME280_humidity;BME280_pressure;Samples;Min_cycle;Max_cycle;Signal;HPM_P1;HPM_P2
2023/01/09 00:01:26;;;;;;;0.80;0.63;;;;;;;;;;5052014;28;20174;-76
2023/01/09 00:03:52;;;;;;;1.43;0.70;;;;;;;;;;5049395;28;20208;-76
2023/01/09 00:06:17;;;;;;;2.43;1.17;;;;;;;;;;5048239;28;20639;-76
2023/01/09 00:08:42;;;;;;;1.90;1.00;;;;;;;;;;5051476;28;20562;-76
2023/01/09 00:11:08;;;;;;;3.27;1.10;;;;;;;;;;5052082;28;20525;-76
2023/01/09 00:13:33;;;;;;;2.70;1.00;;;;;;;;;;5042043;28;20213;-76
2023/01/09 00:15:58;;;;;;;3.57;0.70;;;;;;;;;;5051796;28;20220;-76
2023/01/09 00:18:24;;;;;;;1.47;0.97;;;;;;;;;;5051250;28;20260;-76
2023/01/09 00:20:49;;;;;;;5.30;1.00;;;;;;;;;;5050713;28;20193;-76
2023/01/09 00:23:14;;;;;;;2.47;1.00;;;;;;;;;;5051363;28;20208;-76
2023/01/09 00:25:39;;;;;;;4.33;1.40;;;;;;;;;;5051106;28;20190;-76
2023/01/09 00:28:05;;;;;;;3.40;1.20;;;;;;;;;;5051284;28;20268;-76
2023/01/09 00:30:30;;;;;;;2.33;0.97;;;;;;;;;;5041730;28;20705;-76
2023/01/09 00:32:55;;;;;;;1.90;1.03;;;;;;;;;;5049659;28;20216;-76
2023/01/09 00:35:22;;;;;;;3.23;1.27;;;;;;;;;;5050653;28;20186;-76
2023/01/09 00:37:47;;;;;;;3.53;1.13;;;;;;;;;;5050735;28;20331;-76
2023/01/09 00:40:13;;;;;;;2.70;2.00;;;;;;;;;;5051431;28;20708;-76
2023/01/09 00:42:38;;;;;;;3.57;1.40;;;;;;;;;;5049412;28;20193;-77
2023/01/09 00:45:07;;;;;;;2.37;1.13;;;;;;;;;;5050389;28;20241;-75
2023/01/09 00:47:35;;;;;;;3.70;1.00;;;;;;;;;;5049293;28;20190;-75
2023/01/09 00:50:04;;;;;;;5.13;1.50;;;;;;;;;;5051415;28;20192;-75
2023/01/09 00:52:30;;;;;;;1.50;0.80;;;;;;;;;;5049512;28;20268;-78
2023/01/09 00:54:56;;;;;;;4.93;1.40;;;;;;;;;;5049125;28;20213;-75
2023/01/09 00:57:21;;;;;;;3.70;1.30;;;;;;;;;;5050641;28;20201;-75
2023/01/09 00:59:46;;;;;;;3.97;1.37;;;;;;;;;;5044343;28;20181;-75
2023/01/09 01:02:12;;;;;;;2.07;0.93;;;;;;;;;;5049778;28;20196;-75
2023/01/09 01:07:40;;;;;;;3.70;1.20;;;;;;;;;;5048801;28;20193;-75
2023/01/09 01:10:05;;;;;;;3.27;1.10;;;;;;;;;;5046666;28;20236;-76
2023/01/09 01:12:30;;;;;;;2.20;1.10;;;;;;;;;;5050486;28;20189;-77
2023/01/09 01:14:55;;;;;;;2.90;0.90;;;;;;;;;;5050502;28;20201;-77
2023/01/09 01:17:21;;;;;;;3.43;1.17;;;;;;;;;;5049487;28;20259;-76
2023/01/09 01:19:46;;;;;;;2.63;1.00;;;;;;;;;;5050845;28;20211;-76
2023/01/09 01:22:11;;;;;;;2.00;1.00;;;;;;;;;;5045173;28;20222;-76
2023/01/09 01:24:36;;;;;;;3.77;1.20;;;;;;;;;;5052478;28;20690;-76
2023/01/09 01:27:01;;;;;;;6.27;1.30;;;;;;;;;;5053762;28;20180;-76
2023/01/09 01:29:27;;;;;;;3.30;1.07;;;;;;;;;;5053349;28;20187;-77
2023/01/09 01:31:52;;;;;;;2.37;1.30;;;;;;;;;;5052864;28;20351;-76
2023/01/09 01:34:18;;;;;;;4.83;1.63;;;;;;;;;;5048503;28;20216;-76
2023/01/09 01:36:43;;;;;;;2.97;1.40;;;;;;;;;;5051674;28;20181;-77
2023/01/09 01:39:08;;;;;;;4.23;1.73;;;;;;;;;;5056222;28;20540;-76
2023/01/09 01:41:33;;;;;;;3.43;1.40;;;;;;;;;;5050731;28;20595;-76
2023/01/09 01:44:03;;;;;;;2.83;1.43;;;;;;;;;;5047470;28;20268;-76
2023/01/09 01:46:29;;;;;;;6.00;1.60;;;;;;;;;;5048876;28;20565;-76
2023/01/09 01:48:58;;;;;;;3.13;1.93;;;;;;;;;;5053380;28;20185;-77
2023/01/09 01:51:25;;;;;;;8.53;1.80;;;;;;;;;;5048163;28;20189;-77
2023/01/09 01:53:52;;;;;;;4.70;2.47;;;;;;;;;;5050450;28;20209;-76
2023/01/09 01:56:28;;;;;;;4.93;2.57;;;;;;;;;;5056469;28;20177;-76
2023/01/09 01:59:00;;;;;;;4.87;3.17;;;;;;;;;;5054959;28;20200;-76
2023/01/09 02:01:26;;;;;;;5.40;3.17;;;;;;;;;;5055091;28;20173;-76
2023/01/09 02:03:53;;;;;;;4.37;3.37;;;;;;;;;;5058482;28;20279;-76
2023/01/09 02:06:18;;;;;;;6.97;4.00;;;;;;;;;;5058591;28;20217;-77
2023/01/09 02:08:44;;;;;;;4.63;3.37;;;;;;;;;;5061135;28;20575;-77
2023/01/09 02:11:11;;;;;;;7.70;4.17;;;;;;;;;;5060398;28;20177;-76
2023/01/09 02:13:40;;;;;;;4.67;4.10;;;;;;;;;;5058256;28;21277;-76
2023/01/09 02:16:20;;;;;;;9.53;4.20;;;;;;;;;;5042997;28;20638;-76
2023/01/09 02:18:52;;;;;;;6.93;4.77;;;;;;;;;;5057323;28;20566;-76
2023/01/09 02:21:24;;;;;;;7.90;4.27;;;;;;;;;;5055534;28;20594;-76
2023/01/09 02:23:49;;;;;;;5.53;4.60;;;;;;;;;;5052599;28;20197;-76
2023/01/09 02:26:17;;;;;;;5.67;4.47;;;;;;;;;;5054622;28;20188;-77
2023/01/09 02:29:01;;;;;;;6.10;4.03;;;;;;;;;;5052535;28;20268;-77
2023/01/09 02:31:29;;;;;;;7.00;3.87;;;;;;;;;;5056955;28;20652;-77
2023/01/09 02:33:54;;;;;;;5.00;3.77;;;;;;;;;;5054110;28;20211;-75
2023/01/09 02:36:46;;;;;;;6.87;4.00;;;;;;;;;;5058568;28;20173;-76
2023/01/09 02:39:21;;;;;;;8.33;3.87;;;;;;;;;;5054323;28;20166;-76
2023/01/09 02:42:06;;;;;;;5.53;3.53;;;;;;;;;;5047505;28;20692;-75
2023/01/09 02:44:33;;;;;;;5.87;4.03;;;;;;;;;;5032047;28;20243;-75
2023/01/09 02:47:03;;;;;;;13.00;5.13;;;;;;;;;;5053166;28;20261;-76
2023/01/09 02:49:28;;;;;;;5.17;4.07;;;;;;;;;;5051829;28;20260;-76
2023/01/09 02:52:14;;;;;;;5.13;3.80;;;;;;;;;;5053141;28;20273;-76
2023/01/09 02:54:54;;;;;;;8.90;3.90;;;;;;;;;;5043029;28;20221;-76
2023/01/09 02:57:38;;;;;;;7.13;4.17;;;;;;;;;;5051213;28;20174;-76
2023/01/09 03:00:10;;;;;;;7.60;4.27;;;;;;;;;;5048089;28;20184;-76
2023/01/09 03:02:42;;;;;;;6.67;3.93;;;;;;;;;;5050316;28;20180;-76
2023/01/09 03:05:22;;;;;;;6.80;3.53;;;;;;;;;;5052807;28;20193;-76
2023/01/09 03:08:10;;;;;;;5.10;4.20;;;;;;;;;;5051608;28;20208;-76
2023/01/09 03:10:39;;;;;;;8.07;4.27;;;;;;;;;;5049084;28;20189;-76
2023/01/09 03:13:08;;;;;;;5.13;3.70;;;;;;;;;;5053032;28;20178;-76
2023/01/09 03:15:35;;;;;;;5.93;3.70;;;;;;;;;;5051330;28;20274;-76
2023/01/09 03:18:02;;;;;;;6.10;3.40;;;;;;;;;;5051681;28;20186;-76
2023/01/09 03:20:28;;;;;;;5.80;3.90;;;;;;;;;;5050787;28;20654;-76
2023/01/09 03:22:55;;;;;;;9.17;4.73;;;;;;;;;;5052696;28;20178;-76
2023/01/09 03:25:21;;;;;;;5.33;3.47;;;;;;;;;;5052394;28;20205;-76
2023/01/09 03:27:46;;;;;;;6.53;3.50;;;;;;;;;;5052326;28;20217;-76
2023/01/09 03:30:11;;;;;;;4.43;3.43;;;;;;;;;;5051039;28;20269;-76
2023/01/09 03:32:36;;;;;;;6.10;3.77;;;;;;;;;;5052357;28;20182;-76
2023/01/09 03:35:02;;;;;;;6.00;3.13;;;;;;;;;;5051582;28;20517;-76
2023/01/09 03:37:27;;;;;;;6.47;3.27;;;;;;;;;;5055685;28;20165;-76
2023/01/09 03:39:52;;;;;;;4.63;2.77;;;;;;;;;;5050151;28;20261;-76
2023/01/09 03:42:17;;;;;;;5.40;2.90;;;;;;;;;;5052176;28;20176;-76
2023/01/09 03:44:43;;;;;;;6.90;2.90;;;;;;;;;;5044654;28;23506;-76
2023/01/09 03:47:08;;;;;;;4.20;2.97;;;;;;;;;;5051113;28;20186;-76
2023/01/09 03:49:33;;;;;;;5.80;2.83;;;;;;;;;;5049461;28;20188;-76
2023/01/09 03:51:58;;;;;;;7.53;2.93;;;;;;;;;;5053639;28;20328;-76
2023/01/09 03:54:23;;;;;;;6.80;2.83;;;;;;;;;;5051602;28;20249;-76
2023/01/09 03:56:49;;;;;;;6.67;3.23;;;;;;;;;;5052055;28;20189;-76
2023/01/09 03:59:14;;;;;;;5.23;3.03;;;;;;;;;;5048444;28;20284;-76
2023/01/09 04:01:39;;;;;;;7.27;3.27;;;;;;;;;;5051880;28;20181;-77
2023/01/09 04:04:04;;;;;;;6.00;2.63;;;;;;;;;;5051980;28;20201;-77
2023/01/09 04:06:29;;;;;;;5.23;3.00;;;;;;;;;;5050270;28;20576;-75
2023/01/09 04:08:55;;;;;;;8.60;2.37;;;;;;;;;;5050803;28;20546;-75
2023/01/09 04:11:21;;;;;;;4.77;2.87;;;;;;;;;;5051406;28;20213;-77
2023/01/09 04:13:46;;;;;;;6.83;2.67;;;;;;;;;;5051466;28;20205;-75
2023/01/09 04:16:11;;;;;;;5.23;3.07;;;;;;;;;;5051751;28;20166;-77
2023/01/09 04:18:37;;;;;;;6.20;3.00;;;;;;;;;;5050524;28;20289;-75
2023/01/09 04:21:02;;;;;;;5.80;2.40;;;;;;;;;;5051693;28;20625;-75
2023/01/09 04:23:27;;;;;;;7.77;3.03;;;;;;;;;;5049099;28;20201;-75
2023/01/09 04:25:52;;;;;;;9.03;2.50;;;;;;;;;;5051458;28;20185;-77
2023/01/09 04:28:17;;;;;;;6.13;2.53;;;;;;;;;;5054372;28;20184;-77
2023/01/09 04:30:43;;;;;;;6.57;2.83;;;;;;;;;;5051445;28;20173;-75
2023/01/09 04:33:08;;;;;;;4.20;2.47;;;;;;;;;;5051265;28;20177;-75
2023/01/09 04:35:33;;;;;;;4.50;2.20;;;;;;;;;;5051208;28;20520;-76
2023/01/09 04:37:59;;;;;;;8.17;3.20;;;;;;;;;;5048468;28;20182;-77
2023/01/09 04:40:24;;;;;;;4.90;2.10;;;;;;;;;;5051226;28;20173;-77
2023/01/09 04:42:50;;;;;;;6.43;2.50;;;;;;;;;;5049727;28;20204;-77
2023/01/09 04:45:16;;;;;;;5.37;2.83;;;;;;;;;;5051099;28;20193;-76
2023/01/09 04:47:41;;;;;;;5.30;2.40;;;;;;;;;;5041735;28;20216;-76
2023/01/09 04:50:07;;;;;;;7.13;2.33;;;;;;;;;;5047534;28;20185;-75
2023/01/09 04:52:32;;;;;;;8.60;2.30;;;;;;;;;;5049240;28;20272;-76
2023/01/09 04:54:57;;;;;;;6.30;2.13;;;;;;;;;;5097629;22;20227;-71
2023/01/09 04:57:22;;;;;;;3.27;2.23;;;;;;;;;;5103971;28;20319;-71
2023/01/09 04:59:48;;;;;;;2.93;1.47;;;;;;;;;;5107435;28;20171;-71
2023/01/09 05:02:13;;;;;;;5.80;1.97;;;;;;;;;;5108840;28;20172;-71
2023/01/09 05:04:38;;;;;;;4.37;2.00;;;;;;;;;;5114521;27;20209;-71
2023/01/09 05:07:03;;;;;;;3.57;1.77;;;;;;;;;;5117400;27;20190;-71
2023/01/09 05:09:29;;;;;;;8.10;2.73;;;;;;;;;;5111301;28;20196;-71
2023/01/09 05:11:54;;;;;;;6.77;1.90;;;;;;;;;;5112159;28;20172;-71
2023/01/09 05:14:19;;;;;;;3.87;1.80;;;;;;;;;;5113794;27;20264;-72
2023/01/09 05:16:44;;;;;;;7.83;1.93;;;;;;;;;;5119151;28;20233;-72
2023/01/09 05:19:09;;;;;;;8.13;1.90;;;;;;;;;;5110434;28;20175;-72
2023/01/09 05:21:35;;;;;;;4.07;1.50;;;;;;;;;;5111438;28;20255;-72
2023/01/09 05:24:00;;;;;;;4.90;1.80;;;;;;;;;;5111191;28;20244;-72
2023/01/09 05:26:25;;;;;;;2.60;1.50;;;;;;;;;;5110797;28;20670;-72
2023/01/09 05:28:51;;;;;;;3.70;1.50;;;;;;;;;;5112341;28;20723;-72
2023/01/09 05:31:17;;;;;;;2.10;1.53;;;;;;;;;;5114820;27;20683;-72
2023/01/09 05:33:42;;;;;;;7.33;1.73;;;;;;;;;;5128165;27;20207;-72
2023/01/09 05:36:07;;;;;;;3.07;1.43;;;;;;;;;;5114384;28;20191;-72
2023/01/09 05:38:32;;;;;;;4.17;1.53;;;;;;;;;;5114779;28;20180;-72
2023/01/09 05:40:57;;;;;;;6.40;1.90;;;;;;;;;;5115605;28;20171;-72
2023/01/09 05:43:23;;;;;;;6.43;1.93;;;;;;;;;;5113868;27;20175;-72
2023/01/09 05:45:48;;;;;;;7.60;1.50;;;;;;;;;;5117666;27;20187;-72
2023/01/09 05:48:13;;;;;;;11.50;2.13;;;;;;;;;;5107221;27;20665;-72
2023/01/09 05:50:38;;;;;;;4.93;1.50;;;;;;;;;;5115468;27;20225;-72
2023/01/09 05:53:05;;;;;;;5.50;1.80;;;;;;;;;;5114793;27;20688;-72
2023/01/09 05:55:30;;;;;;;4.77;2.07;;;;;;;;;;5115908;27;20226;-72
2023/01/09 05:57:55;;;;;;;3.77;1.83;;;;;;;;;;5115033;27;20582;-72
2023/01/09 06:00:21;;;;;;;4.50;1.57;;;;;;;;;;5113684;27;20191;-72
2023/01/09 06:02:46;;;;;;;4.00;1.47;;;;;;;;;;5114961;27;20237;-72
2023/01/09 06:05:11;;;;;;;3.17;1.53;;;;;;;;;;5112901;28;20233;-72
2023/01/09 06:07:39;;;;;;;5.37;1.90;;;;;;;;;;5114368;28;20168;-72
2023/01/09 06:10:04;;;;;;;5.37;1.70;;;;;;;;;;5114927;28;20186;-72
2023/01/09 06:12:29;;;;;;;4.47;1.50;;;;;;;;;;5113981;28;20180;-72
2023/01/09 06:14:55;;;;;;;6.97;1.80;;;;;;;;;;5114863;28;20206;-72
2023/01/09 06:17:20;;;;;;;6.67;1.80;;;;;;;;;;5119879;27;20184;-72
2023/01/09 06:19:45;;;;;;;4.70;2.20;;;;;;;;;;5123455;27;20639;-72
2023/01/09 06:22:10;;;;;;;6.70;1.80;;;;;;;;;;5116443;28;20243;-73
2023/01/09 06:24:36;;;;;;;7.80;1.70;;;;;;;;;;5116443;28;20195;-72
2023/01/09 06:27:01;;;;;;;5.00;1.70;;;;;;;;;;5116242;27;20194;-73
2023/01/09 06:29:26;;;;;;;6.10;1.97;;;;;;;;;;5126639;27;20202;-72
2023/01/09 06:31:51;;;;;;;4.57;1.60;;;;;;;;;;5118153;27;20567;-72
2023/01/09 06:34:16;;;;;;;5.07;1.87;;;;;;;;;;5113257;28;20207;-72
2023/01/09 06:36:42;;;;;;;6.87;2.07;;;;;;;;;;5117786;27;20256;-72
2023/01/09 06:39:07;;;;;;;5.83;1.97;;;;;;;;;;5124105;27;20164;-72
2023/01/09 06:41:32;;;;;;;4.67;1.80;;;;;;;;;;5113944;28;20562;-72
2023/01/09 06:43:57;;;;;;;5.67;3.47;;;;;;;;;;5110897;28;20211;-72
2023/01/09 06:46:22;;;;;;;8.43;2.17;;;;;;;;;;5122057;27;20171;-72
2023/01/09 06:48:48;;;;;;;6.83;1.87;;;;;;;;;;5111790;27;20930;-72
2023/01/09 06:51:13;;;;;;;5.93;2.10;;;;;;;;;;5113026;28;20176;-72
2023/01/09 06:53:38;;;;;;;5.47;2.10;;;;;;;;;;5116851;27;20272;-72
2023/01/09 06:56:03;;;;;;;7.60;2.30;;;;;;;;;;5117387;27;20625;-72
2023/01/09 06:58:29;;;;;;;8.97;3.00;;;;;;;;;;5115431;27;20175;-72
2023/01/09 07:00:55;;;;;;;7.00;2.83;;;;;;;;;;5105565;28;20168;-72
2023/01/09 07:03:21;;;;;;;6.87;2.50;;;;;;;;;;5110252;27;20640;-72
2023/01/09 07:05:47;;;;;;;8.20;3.03;;;;;;;;;;5115818;27;20233;-72
2023/01/09 07:08:13;;;;;;;6.70;2.83;;;;;;;;;;5113526;28;20176;-72
2023/01/09 07:10:39;;;;;;;8.33;3.20;;;;;;;;;;5113519;27;20176;-72
2023/01/09 07:13:04;;;;;;;4.40;3.10;;;;;;;;;;5112353;28;20180;-72
2023/01/09 07:15:29;;;;;;;5.40;2.70;;;;;;;;;;5114129;27;20682;-72
2023/01/09 07:17:54;;;;;;;6.77;2.53;;;;;;;;;;5113911;28;20168;-72
2023/01/09 07:20:19;;;;;;;6.40;3.40;;;;;;;;;;5112816;27;20206;-72
2023/01/09 07:22:45;;;;;;;6.40;3.47;;;;;;;;;;5113541;28;20167;-72
2023/01/09 07:25:10;;;;;;;6.97;2.90;;;;;;;;;;5113067;28;20195;-72
2023/01/09 07:27:35;;;;;;;4.30;3.40;;;;;;;;;;5112546;27;20183;-72
2023/01/09 07:30:01;;;;;;;5.93;3.50;;;;;;;;;;5112955;28;20183;-72
2023/01/09 07:32:26;;;;;;;6.03;2.97;;;;;;;;;;5112628;28;20186;-72
2023/01/09 07:34:52;;;;;;;6.20;2.80;;;;;;;;;;5113313;28;20199;-72
2023/01/09 07:37:17;;;;;;;3.43;2.30;;;;;;;;;;5113552;27;20225;-72
2023/01/09 07:39:43;;;;;;;3.73;2.03;;;;;;;;;;5107675;27;20182;-72
2023/01/09 07:42:08;;;;;;;3.03;1.50;;;;;;;;;;5105473;27;20206;-72
2023/01/09 07:44:33;;;;;;;1.77;0.90;;;;;;;;;;5109159;28;20286;-71
2023/01/09 07:46:58;;;;;;;1.47;0.70;;;;;;;;;;5112378;28;20175;-72
2023/01/09 07:49:23;;;;;;;5.50;1.03;;;;;;;;;;5107760;27;20194;-72
2023/01/09 07:51:49;;;;;;;1.57;0.70;;;;;;;;;;5107529;28;20211;-72
2023/01/09 07:54:14;;;;;;;0.63;0.53;;;;;;;;;;5108395;28;20295;-72
2023/01/09 07:56:39;;;;;;;2.63;0.80;;;;;;;;;;5111777;28;20180;-72
2023/01/09 07:59:04;;;;;;;3.77;0.53;;;;;;;;;;5112387;28;20160;-72
2023/01/09 08:01:30;;;;;;;1.43;0.73;;;;;;;;;;5109106;27;20527;-72
2023/01/09 08:03:55;;;;;;;3.80;1.30;;;;;;;;;;5112558;27;20743;-72
2023/01/09 08:06:20;;;;;;;0.90;0.60;;;;;;;;;;5115287;27;20720;-71
2023/01/09 08:08:45;;;;;;;1.90;0.50;;;;;;;;;;5108959;28;20326;-72
2023/01/09 08:11:11;;;;;;;1.70;0.80;;;;;;;;;;5110460;27;20176;-72
2023/01/09 08:13:36;;;;;;;2.40;0.80;;;;;;;;;;5111767;28;20540;-72
2023/01/09 08:16:01;;;;;;;2.23;0.60;;;;;;;;;;5112693;27;20304;-73
2023/01/09 08:18:26;;;;;;;2.50;0.93;;;;;;;;;;5112398;27;20232;-72
2023/01/09 08:20:51;;;;;;;1.67;0.83;;;;;;;;;;5111486;27;20177;-72
2023/01/09 08:23:17;;;;;;;5.67;1.17;;;;;;;;;;5111636;27;20262;-71
2023/01/09 08:25:42;;;;;;;1.80;1.20;;;;;;;;;;5112154;28;20191;-72
2023/01/09 08:28:08;;;;;;;4.50;1.30;;;;;;;;;;5116827;27;20174;-72
2023/01/09 08:30:33;;;;;;;2.53;1.00;;;;;;;;;;5112399;28;20179;-72
2023/01/09 08:32:58;;;;;;;1.47;1.07;;;;;;;;;;5106267;28;20663;-72
2023/01/09 08:35:24;;;;;;;2.40;1.73;;;;;;;;;;5112000;28;20203;-72
2023/01/09 08:37:49;;;;;;;6.30;2.70;;;;;;;;;;5108986;27;20175;-72
2023/01/09 08:40:15;;;;;;;6.10;1.80;;;;;;;;;;5114920;27;20207;-72
2023/01/09 08:48:10;;;;;;;3.67;1.97;;;;;;;;;;5111837;28;20206;-73
2023/01/09 08:50:35;;;;;;;6.47;1.73;;;;;;;;;;5109126;28;20199;-72
2023/01/09 08:53:00;;;;;;;3.70;1.70;;;;;;;;;;5104102;27;20180;-73
2023/01/09 08:55:25;;;;;;;4.77;1.30;;;;;;;;;;5100734;28;20664;-72
2023/01/09 08:57:51;;;;;;;5.77;2.40;;;;;;;;;;5111355;28;20332;-72
2023/01/09 09:00:17;;;;;;;5.33;1.53;;;;;;;;;;5115183;27;20183;-72
2023/01/09 09:02:43;;;;;;;6.83;1.30;;;;;;;;;;5111517;27;20600;-72
2023/01/09 09:05:08;;;;;;;5.53;1.60;;;;;;;;;;5109886;28;20200;-72
2023/01/09 09:07:33;;;;;;;3.10;1.10;;;;;;;;;;5108741;27;20190;-72
2023/01/09 09:09:58;;;;;;;6.63;1.23;;;;;;;;;;5110526;27;20678;-72
2023/01/09 09:12:23;;;;;;;12.30;1.73;;;;;;;;;;5118455;27;20208;-72
2023/01/09 09:17:33;;;;;;;4.37;1.43;;;;;;;;;;5111986;27;20197;-72
2023/01/09 09:19:59;;;;;;;9.50;2.00;;;;;;;;;;5108815;28;20781;-72
2023/01/09 09:22:24;;;;;;;18.57;3.37;;;;;;;;;;5112578;28;20209;-72
2023/01/09 09:24:49;;;;;;;8.07;3.37;;;;;;;;;;5113498;28;20202;-72
2023/01/09 09:27:15;;;;;;;9.63;1.47;;;;;;;;;;5115255;28;20911;-72
2023/01/09 09:29:40;;;;;;;9.70;1.63;;;;;;;;;;5121404;28;20189;-72
2023/01/09 09:32:05;;;;;;;9.83;2.10;;;;;;;;;;5107431;28;20188;-73
2023/01/09 09:34:30;;;;;;;11.53;2.93;;;;;;;;;;5110989;28;20202;-72
2023/01/09 09:36:55;;;;;;;14.10;3.10;;;;;;;;;;5113897;28;20675;-72
2023/01/09 09:39:21;;;;;;;15.70;3.80;;;;;;;;;;5109161;28;20256;-73
2023/01/09 09:44:42;;;;;;;12.00;1.80;;;;;;;;;;5114239;28;20209;-72
2023/01/09 09:47:16;;;;;;;4.07;1.40;;;;;;;;;;5124868;28;20183;-72
2023/01/09 09:49:52;;;;;;;7.00;1.73;;;;;;;;;;5108778;28;20203;-71
2023/01/09 09:52:37;;;;;;;14.43;2.83;;;;;;;;;;5110319;28;20167;-71
2023/01/09 09:55:09;;;;;;;6.30;1.40;;;;;;;;;;5109091;28;20367;-72
2023/01/09 09:57:36;;;;;;;3.13;1.13;;;;;;;;;;5116446;28;20210;-71
2023/01/09 10:00:03;;;;;;;8.17;1.50;;;;;;;;;;5109555;28;20175;-72
2023/01/09 10:02:31;;;;;;;5.40;1.53;;;;;;;;;;5115878;28;20211;-72
2023/01/09 10:05:20;;;;;;;8.30;1.50;;;;;;;;;;5110549;28;20195;-71
2023/01/09 10:07:49;;;;;;;4.50;1.30;;;;;;;;;;5103325;28;20196;-72
2023/01/09 10:10:33;;;;;;;8.07;1.73;;;;;;;;;;5113309;28;20194;-71
2023/01/09 10:12:59;;;;;;;4.23;1.70;;;;;;;;;;5104893;28;20175;-71
2023/01/09 10:15:29;;;;;;;13.37;1.83;;;;;;;;;;5110310;28;20571;-71
2023/01/09 10:18:01;;;;;;;6.83;1.73;;;;;;;;;;5109911;27;20207;-71
2023/01/09 10:20:36;;;;;;;6.03;1.07;;;;;;;;;;5112973;27;20227;-71
2023/01/09 10:23:01;;;;;;;7.50;1.43;;;;;;;;;;5118909;27;20557;-72
2023/01/09 10:25:29;;;;;;;2.90;1.20;;;;;;;;;;5114508;28;20202;-72
2023/01/09 10:27:54;;;;;;;9.60;1.43;;;;;;;;;;5111200;28;20199;-72
2023/01/09 10:30:23;;;;;;;5.70;1.33;;;;;;;;;;5112311;27;20643;-72
2023/01/09 10:33:05;;;;;;;7.37;1.27;;;;;;;;;;5107695;28;20592;-72
2023/01/09 10:35:39;;;;;;;5.00;1.33;;;;;;;;;;5113493;27;20207;-72
2023/01/09 10:38:07;;;;;;;7.70;3.37;;;;;;;;;;5114060;28;20251;-72
2023/01/09 10:40:40;;;;;;;4.77;1.20;;;;;;;;;;5114040;27;20179;-73
2023/01/09 10:43:10;;;;;;;10.20;2.23;;;;;;;;;;5112707;27;20290;-72
2023/01/09 10:45:39;;;;;;;7.77;2.03;;;;;;;;;;5107325;27;20211;-72
2023/01/09 10:48:21;;;;;;;12.07;4.00;;;;;;;;;;5114371;27;20191;-72
2023/01/09 10:50:47;;;;;;;7.00;1.23;;;;;;;;;;5106381;28;20183;-72
2023/01/09 10:53:20;;;;;;;5.50;1.07;;;;;;;;;;5109434;28;20203;-72
2023/01/09 10:55:47;;;;;;;3.33;1.43;;;;;;;;;;5093560;22;20232;-76
2023/01/09 10:58:13;;;;;;;4.37;1.43;;;;;;;;;;5071201;28;20181;-75
2023/01/09 11:00:39;;;;;;;5.47;1.13;;;;;;;;;;5074384;28;20177;-75
2023/01/09 11:03:04;;;;;;;3.20;1.00;;;;;;;;;;5067702;28;20179;-75
2023/01/09 11:05:29;;;;;;;7.00;1.50;;;;;;;;;;5058760;28;20558;-75
2023/01/09 11:08:07;;;;;;;3.67;1.73;;;;;;;;;;5067328;28;20174;-75
2023/01/09 11:10:47;;;;;;;11.23;1.90;;;;;;;;;;5073219;28;20196;-75
2023/01/09 11:13:14;;;;;;;7.93;1.80;;;;;;;;;;5060855;28;20646;-75
2023/01/09 11:15:39;;;;;;;6.50;2.33;;;;;;;;;;5066696;28;20219;-75
2023/01/09 11:18:23;;;;;;;7.57;1.97;;;;;;;;;;5056613;28;20176;-75
2023/01/09 11:20:48;;;;;;;9.33;2.10;;;;;;;;;;5067908;28;20324;-75
2023/01/09 11:23:24;;;;;;;8.97;2.83;;;;;;;;;;5073979;28;20260;-75
2023/01/09 11:25:53;;;;;;;8.90;2.20;;;;;;;;;;5051345;28;20215;-75
2023/01/09 11:28:19;;;;;;;14.40;2.50;;;;;;;;;;5067833;28;20184;-75
2023/01/09 11:30:58;;;;;;;9.23;2.10;;;;;;;;;;5068675;28;20177;-75
2023/01/09 11:33:25;;;;;;;7.93;1.80;;;;;;;;;;5075118;28;20188;-76
2023/01/09 11:35:55;;;;;;;10.07;2.10;;;;;;;;;;5068667;28;20575;-75
2023/01/09 11:38:20;;;;;;;8.50;1.57;;;;;;;;;;5071040;28;20177;-76
2023/01/09 11:40:50;;;;;;;11.43;1.87;;;;;;;;;;5071836;28;20183;-75
2023/01/09 11:43:20;;;;;;;7.63;2.00;;;;;;;;;;5068522;28;20595;-75
2023/01/09 11:45:48;;;;;;;8.00;1.97;;;;;;;;;;5068256;28;20205;-75
2023/01/09 11:48:30;;;;;;;4.80;1.57;;;;;;;;;;5072105;28;20204;-75
2023/01/09 11:50:57;;;;;;;5.97;1.80;;;;;;;;;;5064438;28;20260;-76
2023/01/09 11:53:23;;;;;;;7.47;1.90;;;;;;;;;;5069264;28;20652;-75
2023/01/09 11:56:01;;;;;;;6.37;1.50;;;;;;;;;;5069669;28;20228;-76
2023/01/09 11:58:29;;;;;;;7.43;1.60;;;;;;;;;;5069124;28;20679;-76
2023/01/09 12:00:54;;;;;;;10.43;1.80;;;;;;;;;;5067679;28;20180;-76
2023/01/09 12:03:19;;;;;;;7.93;2.77;;;;;;;;;;5066493;28;20180;-76
2023/01/09 12:05:47;;;;;;;9.53;3.60;;;;;;;;;;5049417;28;20709;-75
2023/01/09 12:08:18;;;;;;;5.70;1.70;;;;;;;;;;5073230;28;20176;-75
2023/01/09 12:10:46;;;;;;;6.00;2.00;;;;;;;;;;5048029;28;20605;-76
2023/01/09 12:13:30;;;;;;;13.27;4.27;;;;;;;;;;5072312;28;20179;-76
2023/01/09 12:16:01;;;;;;;7.33;2.20;;;;;;;;;;5067808;28;20300;-76
2023/01/09 12:18:32;;;;;;;6.53;1.47;;;;;;;;;;5068890;28;20677;-73
2023/01/09 12:21:13;;;;;;;4.87;2.10;;;;;;;;;;5050885;28;20195;-76
2023/01/09 12:23:52;;;;;;;9.57;2.17;;;;;;;;;;5049289;28;20215;-75
2023/01/09 12:26:29;;;;;;;6.63;2.00;;;;;;;;;;5048312;28;20309;-76
2023/01/09 12:29:10;;;;;;;8.87;2.53;;;;;;;;;;5069420;28;20677;-75
2023/01/09 12:31:38;;;;;;;9.03;1.93;;;;;;;;;;5051645;28;20188;-75
2023/01/09 12:34:06;;;;;;;10.83;2.17;;;;;;;;;;5072197;28;20212;-75
2023/01/09 12:36:37;;;;;;;5.73;1.67;;;;;;;;;;5069294;28;20212;-75
2023/01/09 12:39:10;;;;;;;7.73;1.73;;;;;;;;;;5068922;28;20177;-76
2023/01/09 12:41:41;;;;;;;8.80;2.40;;;;;;;;;;5067869;28;20223;-75
2023/01/09 12:44:12;;;;;;;7.57;2.10;;;;;;;;;;5048809;28;20225;-76
2023/01/09 12:46:38;;;;;;;5.10;1.40;;;;;;;;;;5065249;28;20185;-75
2023/01/09 12:49:18;;;;;;;8.23;2.10;;;;;;;;;;5066565;28;20193;-75
2023/01/09 12:51:46;;;;;;;7.33;1.60;;;;;;;;;;5039549;28;20322;-75
2023/01/09 12:54:25;;;;;;;7.13;1.80;;;;;;;;;;5069907;28;20223;-75
2023/01/09 12:56:50;;;;;;;6.70;1.70;;;;;;;;;;5065881;28;20180;-76
2023/01/09 12:59:24;;;;;;;8.73;2.10;;;;;;;;;;5069538;28;20177;-74
2023/01/09 13:01:50;;;;;;;4.53;1.40;;;;;;;;;;5068793;28;20176;-75
2023/01/09 13:04:21;;;;;;;8.60;1.40;;;;;;;;;;5069157;28;20704;-75
2023/01/09 13:06:49;;;;;;;7.57;2.00;;;;;;;;;;5069466;28;20654;-75
2023/01/09 13:09:17;;;;;;;4.87;1.30;;;;;;;;;;5073525;28;20218;-75
2023/01/09 13:11:46;;;;;;;5.37;1.80;;;;;;;;;;5062146;28;20180;-76
2023/01/09 13:14:31;;;;;;;10.93;2.53;;;;;;;;;;5073159;28;20236;-75
2023/01/09 13:16:57;;;;;;;9.30;4.00;;;;;;;;;;5013243;28;20303;-75
2023/01/09 13:19:22;;;;;;;4.67;1.60;;;;;;;;;;5050321;28;20180;-75
2023/01/09 13:21:48;;;;;;;6.00;1.53;;;;;;;;;;5069354;28;20572;-75
2023/01/09 13:24:23;;;;;;;8.57;1.70;;;;;;;;;;5065774;28;20201;-75
2023/01/09 13:26:53;;;;;;;5.40;1.47;;;;;;;;;;5067078;28;20195;-75
2023/01/09 13:29:21;;;;;;;8.60;1.53;;;;;;;;;;5044218;28;20181;-75
2023/01/09 13:32:04;;;;;;;9.57;1.53;;;;;;;;;;5049433;28;20204;-75
2023/01/09 13:34:30;;;;;;;11.37;2.50;;;;;;;;;;5064570;28;20221;-75
2023/01/09 13:36:56;;;;;;;8.53;1.57;;;;;;;;;;5068468;28;20648;-76
2023/01/09 13:39:23;;;;;;;6.83;1.10;;;;;;;;;;5069045;28;20677;-76
2023/01/09 13:42:51;;;;;;;5.10;1.40;;;;;;;;;;5069612;28;20200;-76
2023/01/09 13:44:47;;;;;;;10.67;2.33;;;;;;;;;;5053422;28;20212;-75
2023/01/09 13:47:16;;;;;;;9.07;1.60;;;;;;;;;;5069844;28;20603;-75
2023/01/09 13:49:41;;;;;;;5.93;2.00;;;;;;;;;;5064365;28;20192;-75
2023/01/09 13:52:24;;;;;;;6.43;1.27;;;;;;;;;;5068827;28;20192;-75
2023/01/09 13:54:50;;;;;;;6.53;1.83;;;;;;;;;;5073234;28;20208;-75
2023/01/09 13:57:23;;;;;;;13.27;3.13;;;;;;;;;;5071382;28;20677;-75
2023/01/09 13:59:48;;;;;;;17.97;2.37;;;;;;;;;;5070754;28;20196;-75
2023/01/09 14:02:32;;;;;;;7.97;2.73;;;;;;;;;;5072680;28;20204;-75
2023/01/09 14:04:57;;;;;;;3.67;1.63;;;;;;;;;;5052659;28;20208;-75
2023/01/09 14:07:24;;;;;;;6.37;1.80;;;;;;;;;;5067823;28;20196;-75
2023/01/09 14:09:54;;;;;;;6.60;1.80;;;;;;;;;;5070081;28;20285;-75
2023/01/09 14:12:20;;;;;;;14.10;1.53;;;;;;;;;;5068594;28;20551;-75
2023/01/09 14:14:46;;;;;;;5.40;1.50;;;;;;;;;;5072321;28;20204;-74
2023/01/09 14:17:23;;;;;;;14.93;2.57;;;;;;;;;;5071209;28;20185;-76
2023/01/09 14:19:52;;;;;;;7.07;1.87;;;;;;;;;;5074800;28;20207;-75
2023/01/09 14:22:24;;;;;;;8.87;1.90;;;;;;;;;;5070662;28;20259;-75
2023/01/09 14:24:51;;;;;;;7.17;1.70;;;;;;;;;;5066327;28;20742;-75
2023/01/09 14:27:35;;;;;;;7.30;2.47;;;;;;;;;;5070772;28;20184;-74
2023/01/09 14:30:19;;;;;;;9.63;2.50;;;;;;;;;;5070654;28;20238;-74
2023/01/09 14:32:44;;;;;;;8.97;1.67;;;;;;;;;;5071617;28;20180;-75
2023/01/09 14:35:16;;;;;;;8.73;2.07;;;;;;;;;;5067130;28;20271;-74
2023/01/09 14:37:41;;;;;;;5.03;1.50;;;;;;;;;;5055637;28;20173;-75
2023/01/09 14:40:14;;;;;;;10.40;4.10;;;;;;;;;;5069706;28;20188;-75
2023/01/09 14:42:40;;;;;;;8.37;2.00;;;;;;;;;;5069723;28;20181;-76
2023/01/09 14:45:18;;;;;;;14.33;2.93;;;;;;;;;;5053088;28;20287;-76
2023/01/09 14:47:45;;;;;;;8.87;1.70;;;;;;;;;;5058905;28;20181;-76
2023/01/09 14:50:30;;;;;;;13.17;2.20;;;;;;;;;;5059708;28;20173;-76
2023/01/09 14:53:15;;;;;;;13.30;2.07;;;;;;;;;;5071539;28;20197;-76
2023/01/09 14:55:56;;;;;;;11.47;1.83;;;;;;;;;;5061602;28;20235;-76
2023/01/09 14:58:32;;;;;;;7.77;1.63;;;;;;;;;;5050994;28;20187;-76
2023/01/09 15:01:01;;;;;;;11.10;1.80;;;;;;;;;;5077606;28;20195;-76